createdAt,value
2022-09-20T00:01:21.710Z,9.31
2022-09-20T00:08:00.857Z,9.22
2022-09-20T00:13:06.865Z,9.12
2022-09-20T00:18:15.240Z,9.12
2022-09-20T00:23:23.382Z,9.17
2022-09-20T00:28:30.913Z,9.17
2022-09-20T00:33:39.465Z,9.19
2022-09-20T00:38:46.664Z,9.16
2022-09-20T00:43:54.549Z,9.18
2022-09-20T00:49:01.752Z,9.26
2022-09-20T00:54:10.578Z,9.44
2022-09-20T00:59:18.327Z,9.38
2022-09-20T01:04:25.802Z,9.31
2022-09-20T01:09:33.155Z,9.29
2022-09-20T01:14:40.930Z,9.33
2022-09-20T01:19:48.103Z,9.3
2022-09-20T01:24:56.366Z,9.3
2022-09-20T01:30:03.149Z,9.3
2022-09-20T01:35:10.912Z,9.32
2022-09-20T01:40:18.272Z,9.4
2022-09-20T01:45:26.234Z,9.58
2022-09-20T01:50:34.085Z,9.72
2022-09-20T01:55:41.700Z,9.74
2022-09-20T02:00:49.932Z,9.75
2022-09-20T02:05:58.017Z,9.71
2022-09-20T02:11:05.707Z,9.58
2022-09-20T02:16:14.710Z,9.54
2022-09-20T02:21:22.146Z,9.51
2022-09-20T02:26:30.459Z,9.51
2022-09-20T02:31:40.223Z,9.56
2022-09-20T02:36:48.654Z,9.57
2022-09-20T02:41:56.917Z,9.56
2022-09-20T02:47:03.950Z,9.62
2022-09-20T02:52:13.499Z,9.62
2022-09-20T02:57:20.829Z,9.51
2022-09-20T03:02:28.102Z,9.58
2022-09-20T03:07:35.442Z,9.49
2022-09-20T03:12:44.152Z,9.36
2022-09-20T03:17:53.018Z,9.28
2022-09-20T03:23:01.172Z,9.34
2022-09-20T03:28:08.584Z,9.44
2022-09-20T03:33:16.488Z,9.33
2022-09-20T03:38:22.978Z,9.23
2022-09-20T03:43:30.832Z,9.2
2022-09-20T03:48:38.194Z,9.16
2022-09-20T03:53:45.860Z,9.17
2022-09-20T03:58:53.781Z,9.22
2022-09-20T04:04:01.658Z,9.23
2022-09-20T04:09:08.939Z,9.3
2022-09-20T04:14:17.252Z,9.34
2022-09-20T04:19:24.477Z,9.39
2022-09-20T04:24:31.851Z,9.4
2022-09-20T04:29:40.700Z,9.4
2022-09-20T04:34:49.746Z,9.44
2022-09-20T04:39:57.568Z,9.47
2022-09-20T04:45:06.276Z,9.51
2022-09-20T04:50:14.869Z,9.53
2022-09-20T04:55:21.860Z,9.64
2022-09-20T05:00:29.053Z,9.69
2022-09-20T05:05:36.261Z,9.77
2022-09-20T05:10:44.495Z,9.94
2022-09-20T05:15:52.502Z,10.14
2022-09-20T05:21:03.125Z,10.29
2022-09-20T05:26:11.348Z,10.38
2022-09-20T05:31:19.190Z,10.38
2022-09-20T05:36:27.175Z,10.39
2022-09-20T05:41:35.888Z,10.38
2022-09-20T05:46:44.356Z,10.29
2022-09-20T05:51:51.888Z,10.32
2022-09-20T05:57:00.993Z,10.46
2022-09-20T06:02:08.588Z,10.66
2022-09-20T06:07:18.538Z,10.82
2022-09-20T06:12:31.674Z,10.89
2022-09-20T06:17:39.975Z,10.93
2022-09-20T06:22:47.303Z,10.98
2022-09-20T06:27:55.346Z,11.1
2022-09-20T06:33:03.233Z,11.29
2022-09-20T06:38:11.691Z,11.34
2022-09-20T06:43:19.843Z,11.34
2022-09-20T06:48:28.217Z,11.36
2022-09-20T06:53:35.659Z,11.42
2022-09-20T06:58:44.052Z,11.78
2022-09-20T07:03:51.956Z,12.0
2022-09-20T07:08:58.829Z,11.88
2022-09-20T07:14:07.560Z,11.84
2022-09-20T07:19:14.839Z,12.11
2022-09-20T07:24:23.114Z,12.3
2022-09-20T07:29:30.557Z,12.38
2022-09-20T07:34:38.694Z,12.53
2022-09-20T07:39:46.684Z,12.66
2022-09-20T07:44:54.796Z,13.16
2022-09-20T07:50:02.002Z,13.6
2022-09-20T07:55:09.142Z,13.72
2022-09-20T08:00:16.984Z,14.15
2022-09-20T08:05:26.146Z,15.89
2022-09-20T08:10:33.266Z,17.14
2022-09-20T08:15:41.640Z,16.22
2022-09-20T08:20:49.150Z,15.62
2022-09-20T08:25:56.109Z,15.48
2022-09-20T08:31:10.036Z,15.17
2022-09-20T08:36:16.905Z,14.85
2022-09-20T08:41:25.246Z,14.83
2022-09-20T08:46:32.571Z,14.94
2022-09-20T08:51:40.908Z,15.12
2022-09-20T08:56:47.670Z,15.44
2022-09-20T09:01:56.816Z,17.07
2022-09-20T09:07:04.595Z,19.11
2022-09-20T09:12:11.428Z,19.03
2022-09-20T09:17:18.598Z,18.22
2022-09-20T09:22:26.213Z,17.79
2022-09-20T09:32:44.551Z,18.34
2022-09-20T09:37:52.421Z,19.42
2022-09-20T09:43:03.103Z,20.28
2022-09-20T09:48:10.615Z,19.2
2022-09-20T09:53:18.777Z,19.38
2022-09-20T09:58:27.016Z,19.28
2022-09-20T10:03:33.976Z,18.38
2022-09-20T10:08:42.375Z,18.06
2022-09-20T10:13:49.077Z,17.79
2022-09-20T10:18:56.247Z,17.39
2022-09-20T10:24:04.044Z,16.56
2022-09-20T10:29:11.297Z,16.0
2022-09-20T10:34:19.141Z,16.36
2022-09-20T10:39:26.419Z,15.96
2022-09-20T10:44:34.219Z,15.49
2022-09-20T10:49:41.415Z,15.71
2022-09-20T10:54:49.866Z,16.86
2022-09-20T10:59:57.062Z,17.35
2022-09-20T11:05:04.184Z,17.1
2022-09-20T11:10:11.775Z,17.36
2022-09-20T11:15:21.085Z,18.9
2022-09-20T11:20:27.176Z,18.65
2022-09-20T11:25:36.142Z,18.12
2022-09-20T11:30:43.474Z,17.7
2022-09-20T11:35:50.624Z,17.28
2022-09-20T11:40:58.330Z,16.39
2022-09-20T11:46:06.321Z,15.76
2022-09-20T11:51:15.321Z,15.2
2022-09-20T11:56:21.878Z,14.69
2022-09-20T12:01:29.329Z,14.47
2022-09-20T12:06:36.412Z,14.33
2022-09-20T12:11:44.391Z,14.26
2022-09-20T12:16:50.816Z,14.12
2022-09-20T12:21:59.163Z,14.1
2022-09-20T12:27:06.001Z,14.49
2022-09-20T12:32:14.253Z,14.52
2022-09-20T12:37:21.536Z,14.98
2022-09-20T12:42:28.736Z,15.49
2022-09-20T12:47:35.903Z,15.26
2022-09-20T12:52:44.246Z,14.9
2022-09-20T12:57:52.012Z,14.38
2022-09-20T13:02:58.863Z,14.22
2022-09-20T13:08:05.384Z,14.15
2022-09-20T13:13:12.758Z,14.25
2022-09-20T13:18:20.465Z,14.44
2022-09-20T13:23:27.667Z,14.35
2022-09-20T13:28:36.487Z,14.26
2022-09-20T13:33:44.449Z,13.94
2022-09-20T13:38:51.781Z,13.64
2022-09-20T13:44:00.152Z,13.36
2022-09-20T13:49:07.456Z,13.16
2022-09-20T13:54:16.047Z,12.99
2022-09-20T13:59:23.185Z,13.02
2022-09-20T14:04:31.029Z,13.84
2022-09-20T14:09:38.233Z,14.09
2022-09-20T14:14:46.517Z,14.3
2022-09-20T14:19:53.215Z,14.44
2022-09-20T14:25:00.417Z,14.21
2022-09-20T14:30:07.619Z,14.34
2022-09-20T14:35:56.447Z,14.59
2022-09-20T14:41:04.903Z,14.52
2022-09-20T14:46:11.459Z,14.24
2022-09-20T14:51:19.944Z,14.09
2022-09-20T14:56:41.853Z,13.98
2022-09-20T15:01:49.920Z,13.69
2022-09-20T15:06:57.549Z,13.43
2022-09-20T15:12:04.882Z,13.07
2022-09-20T15:17:13.055Z,12.84
2022-09-20T15:22:19.823Z,12.7
2022-09-20T15:27:28.822Z,12.52
2022-09-20T15:32:36.353Z,12.36
2022-09-20T15:37:44.239Z,12.32
2022-09-20T15:42:51.374Z,12.25
2022-09-20T15:47:58.332Z,12.07
2022-09-20T15:53:05.463Z,11.92
2022-09-20T15:58:12.679Z,11.78
2022-09-20T16:03:20.654Z,11.62
2022-09-20T16:08:27.784Z,11.52
2022-09-20T16:13:34.974Z,11.44
2022-09-20T16:18:42.552Z,11.34
2022-09-20T16:23:50.604Z,11.16
2022-09-20T16:28:58.933Z,11.02
2022-09-20T16:34:06.853Z,10.84
2022-09-20T16:39:15.286Z,10.67
2022-09-20T16:45:01.765Z,10.56
2022-09-20T16:50:08.950Z,10.39
2022-09-20T16:55:16.151Z,10.26
2022-09-20T17:00:24.912Z,10.16
2022-09-20T17:05:31.837Z,10.04
2022-09-20T17:30:32.819Z,9.7
2022-09-20T17:35:37.918Z,9.77
2022-09-20T17:40:46.344Z,9.67
2022-09-20T17:45:53.545Z,9.54
2022-09-20T17:51:00.833Z,9.4
2022-09-20T17:56:09.185Z,9.28
2022-09-20T18:01:17.064Z,9.22
2022-09-20T18:06:25.591Z,9.2
2022-09-20T18:11:32.799Z,9.22
2022-09-20T18:16:40.575Z,9.32
2022-09-20T18:21:52.207Z,9.32
2022-09-20T18:27:00.886Z,9.27
2022-09-20T18:32:08.521Z,9.22
2022-09-20T18:37:16.661Z,9.22
2022-09-20T18:42:23.617Z,9.2
2022-09-20T18:47:32.630Z,9.12
2022-09-20T18:52:40.226Z,9.04
2022-09-20T18:57:47.140Z,8.97
2022-09-20T19:02:54.825Z,8.96
2022-09-20T19:08:02.128Z,8.97
2022-09-20T19:13:10.654Z,8.93
2022-09-20T19:18:18.436Z,8.86
2022-09-20T19:23:25.695Z,8.84
2022-09-20T19:28:32.893Z,8.81
2022-09-20T19:33:40.249Z,8.76
2022-09-20T19:38:48.156Z,8.76
2022-09-20T19:43:56.265Z,8.79
2022-09-20T19:49:03.619Z,8.79
2022-09-20T19:54:11.645Z,8.72
2022-09-20T19:59:18.027Z,8.79
2022-09-20T20:04:26.932Z,8.92
2022-09-20T20:09:35.367Z,8.97
2022-09-20T20:14:43.216Z,8.99
2022-09-20T20:19:51.314Z,8.98
2022-09-20T20:24:59.105Z,8.97
2022-09-20T20:30:05.704Z,8.96
2022-09-20T20:35:13.671Z,8.96
2022-09-20T20:40:21.381Z,8.96
2022-09-20T20:45:29.620Z,8.96
2022-09-20T20:50:36.467Z,8.96
2022-09-20T20:55:44.307Z,8.97
2022-09-20T21:00:52.023Z,8.97
2022-09-20T21:06:00.192Z,8.99
2022-09-20T21:11:08.290Z,9.01
2022-09-20T21:16:15.601Z,8.99
2022-09-20T21:21:24.633Z,9.01
2022-09-20T21:26:32.996Z,8.94
2022-09-20T21:31:41.266Z,8.9
2022-09-20T21:36:49.341Z,8.86
2022-09-20T21:41:57.486Z,8.86
2022-09-20T21:47:05.734Z,8.88
2022-09-20T21:52:13.908Z,8.88
2022-09-20T21:57:21.746Z,8.88
2022-09-20T22:02:33.268Z,8.92
2022-09-20T22:07:40.469Z,8.93
2022-09-20T22:12:48.098Z,8.93
2022-09-20T22:17:56.026Z,8.92
2022-09-20T22:23:04.130Z,8.88
2022-09-20T22:28:10.494Z,8.84
2022-09-20T22:33:20.021Z,8.85
2022-09-20T22:38:27.454Z,8.84
2022-09-20T22:43:35.286Z,8.8
2022-09-20T22:48:43.185Z,8.9
2022-09-20T22:53:50.415Z,8.82
2022-09-20T22:58:58.426Z,8.84
2022-09-20T23:04:06.132Z,8.74
2022-09-20T23:09:14.681Z,8.7
2022-09-20T23:14:22.885Z,8.76
2022-09-20T23:19:29.549Z,8.78
2022-09-20T23:24:37.421Z,8.84
2022-09-20T23:29:43.943Z,8.77
2022-09-20T23:34:51.737Z,8.84
2022-09-20T23:39:59.662Z,8.88
2022-09-20T23:45:07.658Z,8.9
2022-09-20T23:50:16.449Z,8.94
2022-09-20T23:55:24.926Z,8.94
